Time;durP1;ratioP1;P1;durP2;ratioP2;P2;SDS_P1;SDS_P2;PMS_P1;PMS_P2;Temp;Humidity;BMP_temperature;BMP_pressure;BME280_temperature;BME280_humidity;BME280_pressure;Samples;Min_cycle;Max_cycle;Signal;HPM_P1;HPM_P2
2023/02/23 00:00:38;;;;;;;35.17;28.83;;;;;;;12.62;67.43;99920.91;5147660;27;20047;-61
2023/02/23 00:03:08;;;;;;;37.25;29.73;;;;;;;12.64;67.48;99916.66;5149441;27;20050;-61
2023/02/23 00:05:37;;;;;;;36.83;30.50;;;;;;;12.65;67.47;99915.47;5144970;27;20051;-62
2023/02/23 00:08:09;;;;;;;38.50;30.23;;;;;;;12.63;67.23;99911.41;5156816;27;20050;-62
2023/02/23 00:10:37;;;;;;;40.20;32.63;;;;;;;12.62;67.59;99915.34;5141171;27;20059;-61
2023/02/23 00:13:12;;;;;;;35.40;29.35;;;;;;;12.66;67.47;99914.34;5145673;27;20074;-61
2023/02/23 00:15:40;;;;;;;41.17;30.85;;;;;;;12.66;67.58;99917.13;5129124;27;20055;-61
2023/02/23 00:18:13;;;;;;;33.63;28.02;;;;;;;12.67;67.46;99907.56;5139276;27;20058;-62
2023/02/23 00:20:46;;;;;;;37.50;29.65;;;;;;;12.64;68.21;99908.28;5136858;27;20422;-62
2023/02/23 00:23:26;;;;;;;36.53;30.33;;;;;;;12.67;68.22;99907.56;5136502;27;20046;-62
2023/02/23 00:25:54;;;;;;;36.13;30.38;;;;;;;12.64;68.00;99907.44;5133323;27;20051;-62
2023/02/23 00:31:18;;;;;;;36.17;30.38;;;;;;;12.63;68.15;99906.63;5129675;27;20074;-62
2023/02/23 00:33:59;;;;;;;41.15;32.88;;;;;;;12.64;67.67;99913.84;5135451;27;20047;-60
2023/02/23 00:36:59;;;;;;;36.88;30.65;;;;;;;12.64;67.59;99904.63;5156237;27;20061;-62
2023/02/23 00:48:09;;;;;;;36.88;30.27;;;;;;;12.69;67.99;99907.22;5143571;27;20050;-62
2023/02/23 00:50:40;;;;;;;37.83;30.85;;;;;;;12.65;67.87;99903.50;5153403;27;20050;-61
2023/02/23 00:53:08;;;;;;;35.50;29.73;;;;;;;12.65;67.67;99900.69;5156087;27;20054;-61
2023/02/23 00:55:41;;;;;;;36.83;30.38;;;;;;;12.65;68.48;99909.06;5151420;27;20050;-66
2023/02/23 00:58:30;;;;;;;34.33;28.38;;;;;;;12.64;68.26;99907.44;5139898;27;20051;-62
2023/02/23 01:01:07;;;;;;;39.10;32.55;;;;;;;12.64;68.67;99908.28;5153295;27;20054;-62
2023/02/23 01:03:35;;;;;;;35.75;29.92;;;;;;;12.62;68.42;99910.59;5148122;27;20475;-62
2023/02/23 01:06:08;;;;;;;35.25;29.60;;;;;;;12.67;68.52;99906.75;5149138;27;20046;-63
2023/02/23 01:08:47;;;;;;;33.03;28.60;;;;;;;12.66;67.61;99908.75;5145621;27;20051;-62
2023/02/23 01:11:29;;;;;;;34.90;29.65;;;;;;;12.67;67.87;99903.97;5131416;27;20055;-62
2023/02/23 01:14:02;;;;;;;37.35;31.15;;;;;;;12.64;67.70;99908.28;5150258;27;20051;-62
2023/02/23 01:16:37;;;;;;;33.40;28.75;;;;;;;12.61;68.06;99906.13;5155833;27;20057;-62
2023/02/23 01:19:13;;;;;;;34.63;30.80;;;;;;;12.64;68.10;99905.47;5139625;27;20047;-62
2023/02/23 01:21:54;;;;;;;38.45;33.55;;;;;;;12.61;68.39;99896.94;5156650;27;20406;-62
2023/02/23 01:24:22;;;;;;;39.60;32.13;;;;;;;12.58;68.47;99902.06;5148347;27;20506;-61
2023/02/23 01:26:58;;;;;;;40.50;32.67;;;;;;;12.55;68.63;99899.94;5151221;27;20047;-65
2023/02/23 01:32:14;;;;;;;37.10;31.30;;;;;;;12.61;68.46;99899.75;5122459;27;20047;-61
2023/02/23 01:34:58;;;;;;;38.10;31.77;;;;;;;12.59;68.87;99898.09;5134923;27;20055;-61
2023/02/23 01:37:45;;;;;;;38.35;31.15;;;;;;;12.65;68.89;99903.50;5152609;27;20065;-60
2023/02/23 01:40:27;;;;;;;36.38;30.88;;;;;;;12.62;68.08;99896.63;5147562;27;20062;-61
2023/02/23 01:42:58;;;;;;;38.13;32.15;;;;;;;12.59;68.87;99897.28;5135327;27;20084;-62
2023/02/23 01:45:40;;;;;;;36.65;29.92;;;;;;;12.57;68.96;99894.00;5129705;27;20054;-61
2023/02/23 01:48:12;;;;;;;39.60;31.30;;;;;;;12.53;68.36;99891.06;5155450;27;20050;-62
2023/02/23 01:50:53;;;;;;;38.58;31.05;;;;;;;12.51;68.58;99903.75;5137716;27;20047;-62
2023/02/23 01:53:28;;;;;;;36.42;31.30;;;;;;;12.43;69.65;99894.31;5134712;27;20047;-62
2023/02/23 01:56:03;;;;;;;37.22;32.67;;;;;;;12.42;69.48;99892.66;5152751;27;20047;-66
2023/02/23 01:58:36;;;;;;;38.88;33.05;;;;;;;12.51;68.94;99898.97;5154372;27;20412;-62
2023/02/23 02:06:35;;;;;;;35.92;30.48;;;;;;;12.46;69.02;99895.59;5131823;27;20509;-70
2023/02/23 02:09:08;;;;;;;35.92;30.98;;;;;;;12.37;69.47;99890.91;5121012;27;20047;-76
2023/02/23 02:11:52;;;;;;;36.92;31.25;;;;;;;12.35;70.21;99889.63;5136239;27;20055;-76
2023/02/23 02:14:27;;;;;;;37.30;30.75;;;;;;;12.36;69.96;99883.66;5128834;27;20047;-77
2023/02/23 02:17:21;;;;;;;40.65;33.03;;;;;;;12.38;69.61;99892.53;5133076;27;20415;-76
2023/02/23 02:20:25;;;;;;;43.10;33.33;;;;;;;12.35;69.61;99886.81;5134949;27;20051;-76
2023/02/23 02:23:49;;;;;;;42.40;35.05;;;;;;;12.32;70.45;99890.28;5135880;27;20062;-77
2023/02/23 02:26:25;;;;;;;41.50;33.78;;;;;;;12.33;70.04;99886.34;5120762;27;20058;-77
2023/02/23 02:29:35;;;;;;;39.75;33.40;;;;;;;12.36;70.38;99886.44;5135498;27;20056;-75
2023/02/23 02:32:26;;;;;;;;;;;;;;;12.32;70.57;99884.69;5134896;27;20051;-77
2023/02/23 02:35:21;;;;;;;37.72;31.10;;;;;;;12.29;70.75;99880.63;5119484;27;19919;-77
2023/02/23 02:38:17;;;;;;;40.42;32.65;;;;;;;12.33;70.58;99886.34;5132073;27;20058;-77
2023/02/23 02:40:53;;;;;;;38.40;32.53;;;;;;;12.32;70.76;99871.53;5128408;27;20046;-77
2023/02/23 02:43:35;;;;;;;39.70;32.92;;;;;;;12.43;70.71;99877.56;5134552;27;20055;-77
2023/02/23 02:46:10;;;;;;;38.58;32.15;;;;;;;12.44;70.27;99875.56;5134320;27;20038;-77
2023/02/23 02:48:48;;;;;;;40.40;34.45;;;;;;;12.42;70.58;99875.91;5133354;27;20058;-77
2023/02/23 02:51:41;;;;;;;37.38;31.05;;;;;;;12.43;70.35;99873.91;5133381;27;20494;-76
2023/02/23 02:54:30;;;;;;;41.45;33.22;;;;;;;12.41;70.70;99874.28;5131452;27;20082;-77
2023/02/23 02:57:03;;;;;;;36.10;31.25;;;;;;;12.40;70.49;99867.06;5133714;27;20051;-77
2023/02/23 04:19:16;;;;;;;40.65;32.45;;;;;;;12.31;70.55;99866.31;5097097;28;20052;-77
2023/02/23 04:21:46;;;;;;;40.22;32.33;;;;;;;12.29;70.92;99872.22;5096883;28;20055;-77
2023/02/23 04:24:24;;;;;;;39.25;32.85;;;;;;;12.31;71.22;99875.50;5060315;28;20062;-76
2023/02/23 04:27:12;;;;;;;39.42;31.70;;;;;;;12.30;71.29;99884.22;5096493;28;20518;-77
2023/02/23 04:29:39;;;;;;;39.10;31.35;;;;;;;12.27;71.37;99879.31;5097262;28;20055;-76
2023/02/23 04:32:37;;;;;;;38.05;31.33;;;;;;;12.30;70.81;99887.81;5096327;28;20047;-76
2023/02/23 04:35:10;;;;;;;39.20;32.65;;;;;;;12.28;70.91;99878.16;5096104;28;20511;-77
2023/02/23 04:40:29;;;;;;;37.17;30.98;;;;;;;12.31;70.62;99886.66;5091034;28;20408;-77
2023/02/23 04:42:57;;;;;;;34.67;29.65;;;;;;;12.31;70.67;99889.47;5088068;28;20126;-77
2023/02/23 04:45:25;;;;;;;36.67;30.92;;;;;;;12.35;70.47;99881.22;5093227;28;20063;-76
2023/02/23 04:47:58;;;;;;;37.22;31.42;;;;;;;12.31;70.77;99888.66;5076640;28;20067;-77
2023/02/23 04:50:32;;;;;;;34.47;28.77;;;;;;;12.36;70.85;99891.22;5097048;28;20064;-76
2023/02/23 04:53:03;;;;;;;35.72;29.90;;;;;;;12.36;70.59;99891.22;5095946;28;20511;-77
2023/02/23 04:55:35;;;;;;;38.22;30.63;;;;;;;12.34;70.56;99880.38;5096716;28;20052;-77
2023/02/23 05:01:04;;;;;;;38.47;32.70;;;;;;;12.41;70.29;99891.03;5092307;28;20048;-77
2023/02/23 05:06:42;;;;;;;42.35;33.70;;;;;;;12.35;70.39;99889.63;5079101;28;20067;-77
2023/02/23 05:09:16;;;;;;;37.30;30.13;;;;;;;12.38;70.33;99895.31;5114911;28;20055;-77
2023/02/23 05:11:45;;;;;;;37.03;31.52;;;;;;;12.36;71.06;99882.84;5116565;28;20048;-76
2023/02/23 05:14:21;;;;;;;33.38;25.20;;;;;;;12.38;71.24;99889.72;5115061;28;20055;-77
2023/02/23 05:16:49;;;;;;;36.60;30.02;;;;;;;12.35;71.16;99896.00;5115709;28;20048;-77
2023/02/23 05:19:17;;;;;;;39.17;33.03;;;;;;;12.35;71.14;99898.00;5115781;28;20054;-75
2023/02/23 05:21:51;;;;;;;40.17;33.42;;;;;;;12.35;71.14;99898.00;5116169;28;20054;-77
2023/02/23 05:24:18;;;;;;;38.05;31.70;;;;;;;12.34;70.85;99899.13;5112272;28;20043;-77
2023/02/23 05:26:46;;;;;;;36.55;31.05;;;;;;;12.31;71.44;99895.06;5115286;28;20052;-76
2023/02/23 05:29:18;;;;;;;37.83;32.70;;;;;;;12.33;71.09;99898.31;5115659;28;20051;-77
2023/02/23 05:31:47;;;;;;;42.40;34.05;;;;;;;12.33;70.84;99903.09;5113604;28;20415;-77
2023/02/23 05:34:17;;;;;;;40.97;33.03;;;;;;;12.33;71.52;99900.31;5116093;28;20040;-77
2023/02/23 05:36:48;;;;;;;42.00;34.25;;;;;;;12.35;71.30;99892.41;5116176;28;20058;-77
2023/02/23 05:39:21;;;;;;;41.70;34.63;;;;;;;12.35;71.12;99895.19;5113835;28;20051;-77
2023/02/23 05:41:48;;;;;;;43.30;35.47;;;;;;;12.32;71.48;99898.66;5113917;28;20491;-77
2023/02/23 05:44:58;;;;;;;40.63;33.55;;;;;;;12.32;71.26;99896.66;5115233;28;20062;-77
2023/02/23 05:47:27;;;;;;;41.17;34.10;;;;;;;12.29;71.45;99896.56;5089417;28;20051;-77
2023/02/23 05:50:08;;;;;;;;;;;;;;;;;;;;;
2023/02/23 05:52:40;;;;;;;42.38;34.80;;;;;;;12.28;71.35;99894.91;5115755;27;20050;-77
2023/02/23 05:55:27;;;;;;;41.58;34.15;;;;;;;12.33;71.59;99903.91;5113693;28;20062;-77
2023/02/23 05:57:58;;;;;;;45.75;34.58;;;;;;;12.32;71.63;99896.66;5113590;28;20060;-76
2023/02/23 06:00:38;;;;;;;;;;;;;;;;;;;;;
2023/02/23 06:03:13;;;;;;;41.85;34.47;;;;;;;12.37;71.01;99912.44;5057010;28;20396;-77
2023/02/23 06:08:22;;;;;;;43.55;35.00;;;;;;;12.41;71.24;99916.19;5092273;28;20086;-77
2023/02/23 06:10:52;;;;;;;52.40;40.35;;;;;;;12.36;71.61;99913.56;5087471;28;20052;-77
2023/02/23 06:13:57;;;;;;;40.92;35.10;;;;;;;12.33;71.75;99915.06;5094087;28;20506;-77
2023/02/23 06:16:38;;;;;;;48.63;36.85;;;;;;;12.35;71.73;99914.75;5050690;28;20054;-77
2023/02/23 06:19:08;;;;;;;47.58;37.60;;;;;;;12.34;71.94;99918.69;5078840;28;20052;-77
2023/02/23 06:21:39;;;;;;;50.88;38.33;;;;;;;12.36;71.75;99919.16;5090349;28;20488;-77
2023/02/23 06:24:09;;;;;;;53.78;40.28;;;;;;;12.37;71.76;99918.03;5090821;28;20048;-76
2023/02/23 06:30:10;;;;;;;45.97;35.95;;;;;;;12.38;71.25;99922.44;5081804;28;20044;-77
2023/02/23 06:32:50;;;;;;;50.00;36.90;;;;;;;12.43;71.40;99930.63;5081808;28;20051;-77
2023/02/23 06:35:18;;;;;;;46.92;37.13;;;;;;;12.38;71.17;99928.00;5084870;28;20048;-77
2023/02/23 06:37:52;;;;;;;49.70;38.40;;;;;;;12.40;71.15;99942.47;5087580;28;20052;-77
2023/02/23 06:40:21;;;;;;;50.95;37.97;;;;;;;12.42;71.63;99930.97;5091319;28;20063;-76
2023/02/23 06:42:51;;;;;;;53.60;39.67;;;;;;;12.40;71.16;99928.50;5092552;28;20420;-77
2023/02/23 06:45:22;;;;;;;53.78;40.72;;;;;;;12.39;71.84;99936.06;5091226;28;20520;-77
2023/02/23 06:47:52;;;;;;;50.60;38.38;;;;;;;12.41;71.17;99941.31;5091156;28;20052;-77
2023/02/23 06:50:23;;;;;;;;;;;;;;;12.34;71.61;99941.84;5092926;28;20048;-77
2023/02/23 06:55:33;;;;;;;51.60;39.65;;;;;;;12.38;71.34;99944.78;5012185;28;20065;-77
2023/02/23 06:58:07;;;;;;;52.33;40.20;;;;;;;12.43;71.45;99943.75;5040235;28;20051;-77
2023/02/23 07:00:38;;;;;;;54.58;40.67;;;;;;;12.42;71.25;99945.72;5092438;28;20514;-77
2023/02/23 07:03:09;;;;;;;52.60;39.20;;;;;;;12.47;71.66;99965.06;5093666;28;20044;-77
2023/02/23 07:05:37;;;;;;;59.88;41.90;;;;;;;12.49;71.14;99959.97;5113931;28;20055;-77
2023/02/23 07:08:05;;;;;;;59.63;43.03;;;;;;;12.51;70.62;99962.41;5111334;28;20043;-78
2023/02/23 07:10:33;;;;;;;54.13;40.33;;;;;;;12.51;70.44;99966.03;5104783;28;20047;-76
2023/02/23 07:13:06;;;;;;;62.22;42.90;;;;;;;12.50;71.04;99972.78;5109781;28;20044;-77
2023/02/23 07:15:47;;;;;;;63.08;43.50;;;;;;;12.53;70.67;99969.31;5102438;28;20441;-78
2023/02/23 07:18:15;;;;;;;59.03;41.85;;;;;;;12.50;70.86;99964.41;5112195;28;20047;-78
2023/02/23 07:20:53;;;;;;;61.20;44.03;;;;;;;12.49;70.40;99971.13;5107390;28;20047;-79
2023/02/23 07:23:46;;;;;;;67.07;48.22;;;;;;;12.55;70.33;99975.38;5101796;28;20523;-78
2023/02/23 07:26:18;;;;;;;70.72;50.03;;;;;;;12.53;70.15;99969.31;5107433;28;20056;-73
2023/02/23 07:28:48;;;;;;;63.45;45.55;;;;;;;12.54;70.63;99970.13;5112108;28;20054;-74
2023/02/23 07:31:16;;;;;;;54.33;40.40;;;;;;;12.55;69.94;99977.34;5107270;28;20048;-72
2023/02/23 07:33:44;;;;;;;53.40;39.10;;;;;;;12.53;70.60;99974.06;5112909;28;20067;-73
2023/02/23 07:36:17;;;;;;;52.22;37.97;;;;;;;12.49;70.06;99982.31;5113362;28;20059;-72
2023/02/23 07:38:49;;;;;;;63.92;45.00;;;;;;;12.55;70.03;99985.72;5111422;28;20043;-72
2023/02/23 07:41:43;;;;;;;54.83;39.58;;;;;;;12.58;70.09;99991.47;5113645;28;20048;-71
2023/02/23 07:44:25;;;;;;;59.92;41.83;;;;;;;12.56;69.34;99988.19;5100800;28;20051;-72
2023/02/23 07:46:59;;;;;;;59.10;42.67;;;;;;;12.55;69.33;99985.72;5114297;28;20403;-71
2023/02/23 07:49:30;;;;;;;55.92;40.25;;;;;;;12.55;69.80;99999.69;5114166;28;20060;-72
2023/02/23 07:52:44;;;;;;;55.20;41.38;;;;;;;12.55;70.07;99989.34;5111979;28;20055;-72
2023/02/23 07:55:18;;;;;;;61.45;42.85;;;;;;;12.54;69.71;99992.50;5030898;28;20064;-71
2023/02/23 07:57:49;;;;;;;61.72;44.78;;;;;;;12.50;69.94;100002.69;5082353;28;20056;-71
2023/02/23 08:00:21;;;;;;;51.67;37.50;;;;;;;12.44;70.46;100004.88;5093921;28;20059;-72
2023/02/23 08:03:28;;;;;;;53.30;39.83;;;;;;;12.46;70.41;99996.97;5093116;28;20056;-72
2023/02/23 08:06:09;;;;;;;48.20;36.03;;;;;;;12.57;70.43;100014.16;5091200;28;20055;-71
2023/02/23 08:12:31;;;;;;;48.00;36.15;;;;;;;12.58;70.45;100005.44;5113373;28;20467;-71
2023/02/23 08:18:07;;;;;;;52.95;37.13;;;;;;;12.67;70.16;100004.56;5114241;28;20060;-72
2023/02/23 08:21:42;;;;;;;50.00;36.85;;;;;;;12.76;69.75;100010.88;5113877;28;20056;-71
2023/02/23 08:24:38;;;;;;;47.70;35.80;;;;;;;12.82;70.45;100014.31;5100384;28;20063;-71
2023/02/23 08:27:18;;;;;;;48.13;35.55;;;;;;;12.78;69.71;100008.56;5115815;28;20480;-70
2023/02/23 08:30:26;;;;;;;51.85;37.25;;;;;;;12.77;70.23;100013.34;5116734;28;20048;-70
2023/02/23 08:39:31;;;;;;;51.50;36.55;;;;;;;12.80;69.84;100023.84;5028325;28;20415;-71
2023/02/23 08:42:06;;;;;;;46.20;33.60;;;;;;;12.81;70.41;100027.47;5052474;28;20049;-70
2023/02/23 08:44:35;;;;;;;47.20;34.05;;;;;;;12.82;69.77;100031.88;5054013;28;20140;-71
2023/02/23 08:49:50;;;;;;;46.33;34.10;;;;;;;12.92;70.03;100030.66;5049684;28;20056;-71
2023/02/23 08:52:38;;;;;;;57.78;38.38;;;;;;;12.94;69.66;100036.75;5053809;28;20453;-71
2023/02/23 08:55:17;;;;;;;53.33;36.17;;;;;;;12.86;70.55;100027.25;5050277;28;20533;-70
2023/02/23 08:57:48;;;;;;;55.20;37.78;;;;;;;12.89;69.88;100034.97;5053444;28;20068;-70
2023/02/23 09:00:18;;;;;;;52.20;37.90;;;;;;;12.92;70.88;100039.88;5053674;28;20049;-71
2023/02/23 09:02:54;;;;;;;54.08;37.03;;;;;;;13.01;69.70;100037.00;5052437;28;20414;-70
2023/02/23 09:05:23;;;;;;;57.10;39.38;;;;;;;13.04;70.51;100032.69;5033481;28;20057;-70
2023/02/23 09:08:01;;;;;;;57.17;39.17;;;;;;;13.12;70.17;100043.00;5034122;28;20450;-70
2023/02/23 09:10:42;;;;;;;68.93;46.33;;;;;;;13.09;69.92;100043.69;5034148;28;20057;-73
2023/02/23 09:13:17;;;;;;;77.05;48.10;;;;;;;13.14;69.51;100046.25;5035487;28;20045;-71
2023/02/23 09:15:48;;;;;;;61.88;43.63;;;;;;;13.17;68.40;100042.78;5034650;28;20064;-71
2023/02/23 09:18:22;;;;;;;66.13;43.53;;;;;;;13.23;69.12;100051.78;5035061;28;20073;-71
2023/02/23 09:20:50;;;;;;;75.18;47.65;;;;;;;13.26;67.94;100048.31;5013292;28;20054;-71
2023/02/23 09:23:19;;;;;;;65.13;45.00;;;;;;;13.28;67.93;100051.56;5017953;28;20049;-71
2023/02/23 09:25:54;;;;;;;60.13;42.90;;;;;;;13.31;68.48;100054.56;5029881;28;20433;-71
2023/02/23 09:28:22;;;;;;;71.15;48.42;;;;;;;13.31;67.75;100060.13;5033772;28;20064;-71
2023/02/23 09:30:50;;;;;;;64.65;43.92;;;;;;;13.38;67.27;100063.19;5033499;28;20482;-71
2023/02/23 09:33:19;;;;;;;56.92;39.13;;;;;;;13.39;67.48;100059.22;5033872;28;20053;-71
2023/02/23 09:35:48;;;;;;;51.45;37.90;;;;;;;13.54;67.15;100056.94;5034416;28;20057;-71
2023/02/23 09:38:17;;;;;;;56.53;39.25;;;;;;;13.63;66.30;100068.03;5033030;28;20060;-72
2023/02/23 09:40:52;;;;;;;51.40;36.00;;;;;;;13.79;65.96;100067.03;5033825;28;20053;-71
2023/02/23 09:43:24;;;;;;;48.65;36.38;;;;;;;13.93;65.57;100069.53;5034492;28;20062;-71
2023/02/23 09:46:10;;;;;;;47.67;34.35;;;;;;;14.06;65.42;100061.97;5035154;28;20045;-71
2023/02/23 09:48:40;;;;;;;44.55;33.38;;;;;;;14.10;66.20;100062.09;5034470;28;20394;-71
2023/02/23 09:51:19;;;;;;;47.35;33.42;;;;;;;14.13;65.31;100062.22;5034589;28;20053;-72
2023/02/23 09:53:54;;;;;;;42.75;32.70;;;;;;;14.17;64.60;100070.72;5033862;28;20057;-71
2023/02/23 09:56:30;;;;;;;40.35;31.00;;;;;;;14.12;65.02;100071.78;5034273;28;20053;-77
2023/02/23 09:59:14;;;;;;;42.78;33.25;;;;;;;14.00;65.49;100069.75;5035433;28;20061;-77
2023/02/23 10:02:19;;;;;;;41.08;30.95;;;;;;;13.88;64.89;100071.72;5034994;28;20382;-77
2023/02/23 10:04:50;;;;;;;48.28;33.47;;;;;;;13.72;65.29;100075.19;5034247;28;20136;-77
2023/02/23 10:07:24;;;;;;;49.50;35.33;;;;;;;13.65;65.77;100080.56;5033610;28;20049;-77
2023/02/23 10:10:06;;;;;;;51.30;34.72;;;;;;;13.58;66.24;100075.50;5032119;28;20433;-77
2023/02/23 10:12:50;;;;;;;66.82;47.78;;;;;;;13.54;66.18;100079.31;5030243;28;20053;-77
2023/02/23 10:15:28;;;;;;;54.42;38.72;;;;;;;13.46;66.16;100075.47;5031344;28;20056;-77
2023/02/23 10:18:11;;;;;;;46.20;34.40;;;;;;;13.36;65.44;100079.50;5033268;28;20157;-77
2023/02/23 10:20:47;;;;;;;45.13;32.58;;;;;;;13.35;66.24;100074.25;5034685;28;20073;-77
2023/02/23 10:23:30;;;;;;;46.30;33.13;;;;;;;13.33;66.41;100080.19;5030287;28;20065;-77
2023/02/23 10:26:01;;;;;;;37.58;29.52;;;;;;;13.35;65.83;100083.44;5033473;28;20083;-77
2023/02/23 10:28:35;;;;;;;46.28;32.20;;;;;;;13.39;67.00;100090.00;5033339;28;20061;-77
2023/02/23 10:31:26;;;;;;;40.65;30.00;;;;;;;13.39;66.28;100095.59;5034177;28;20049;-77
2023/02/23 10:34:00;;;;;;;38.20;29.63;;;;;;;13.42;65.71;100091.31;5035027;28;20053;-77
2023/02/23 10:36:38;;;;;;;35.17;27.10;;;;;;;13.34;66.28;100095.00;5034772;28;20091;-77
2023/02/23 10:39:08;;;;;;;33.30;26.38;;;;;;;13.27;65.84;100101.13;5032004;28;20526;-77
2023/02/23 10:41:39;;;;;;;31.65;24.70;;;;;;;13.24;66.15;100093.38;5034393;28;20068;-77
2023/02/23 10:44:37;;;;;;;30.73;25.35;;;;;;;13.22;66.29;100092.91;5033187;28;20049;-77
2023/02/23 10:47:17;;;;;;;30.23;24.73;;;;;;;13.26;66.27;100102.25;5035431;28;20050;-77
2023/02/23 10:49:47;;;;;;;32.08;24.17;;;;;;;13.25;66.13;100095.03;5034869;28;20060;-76
2023/02/23 10:52:30;;;;;;;33.55;26.02;;;;;;;13.44;66.46;100097.38;5032883;28;20060;-76
2023/02/23 10:54:59;;;;;;;30.52;25.55;;;;;;;13.58;65.84;100103.47;5034409;28;20053;-77
2023/02/23 10:57:29;;;;;;;27.33;21.25;;;;;;;13.76;65.75;100095.75;5032843;28;20057;-77
2023/02/23 11:00:31;;;;;;;24.90;21.95;;;;;;;13.91;64.40;100094.25;5035452;28;20053;-76
2023/02/23 11:03:17;;;;;;;26.45;21.52;;;;;;;14.07;64.96;100094.41;5032816;28;20225;-77
2023/02/23 11:05:50;;;;;;;22.55;19.50;;;;;;;14.27;63.85;100097.47;5033764;28;20061;-77
2023/02/23 11:08:35;;;;;;;23.50;19.85;;;;;;;14.31;62.71;100092.81;5031849;28;20065;-77
2023/02/23 11:11:20;;;;;;;25.23;20.67;;;;;;;14.26;63.65;100090.22;5033461;28;20049;-77
2023/02/23 11:13:53;;;;;;;27.20;22.33;;;;;;;14.23;63.19;100099.34;5032882;28;20049;-76
2023/02/23 11:16:38;;;;;;;24.02;21.17;;;;;;;14.21;62.40;100099.69;5032936;28;20045;-78
2023/02/23 11:19:19;;;;;;;26.27;20.95;;;;;;;14.18;62.87;100092.78;5032450;28;20061;-77
2023/02/23 11:21:51;;;;;;;27.33;20.88;;;;;;;14.08;62.89;100087.63;5033344;28;20060;-78
2023/02/23 11:27:21;;;;;;;27.70;22.43;;;;;;;13.82;62.72;100101.94;5032077;28;20096;-77
2023/02/23 11:29:58;;;;;;;28.85;22.95;;;;;;;13.73;62.66;100099.25;5033134;28;20057;-78
2023/02/23 11:32:42;;;;;;;;;;;;;;;;;;;;;
2023/02/23 11:35:30;;;;;;;33.08;25.35;;;;;;;13.57;63.32;100101.03;5032309;28;20053;-77
2023/02/23 11:37:58;;;;;;;34.65;27.08;;;;;;;13.49;63.88;100096.34;5032371;28;20065;-77
2023/02/23 11:40:33;;;;;;;37.55;28.67;;;;;;;13.51;63.24;100094.03;5033349;28;20057;-77
2023/02/23 11:43:27;;;;;;;40.40;29.40;;;;;;;13.52;63.98;100090.03;5034052;28;20049;-77
2023/02/23 11:45:58;;;;;;;39.47;28.33;;;;;;;13.44;62.92;100086.19;5032106;28;20057;-78
2023/02/23 11:48:33;;;;;;;38.38;28.17;;;;;;;13.40;62.92;100088.03;5033282;28;20057;-78
2023/02/23 11:51:04;;;;;;;36.85;28.10;;;;;;;13.28;63.14;100083.16;5033306;28;20490;-78
2023/02/23 11:53:48;;;;;;;38.30;28.00;;;;;;;13.20;63.69;100086.84;5032706;28;20149;-78
2023/02/23 11:56:33;;;;;;;38.88;27.73;;;;;;;13.15;64.20;100079.47;5032511;28;20049;-77
2023/02/23 11:59:06;;;;;;;39.13;28.38;;;;;;;13.12;64.56;100090.53;5032124;28;20514;-76
2023/02/23 12:01:44;;;;;;;42.25;30.92;;;;;;;13.06;63.72;100100.28;5034450;28;20060;-77
2023/02/23 12:04:53;;;;;;;41.85;30.00;;;;;;;12.92;64.48;100098.56;5035951;28;20049;-77
2023/02/23 12:07:46;;;;;;;46.03;30.90;;;;;;;12.90;64.55;100095.28;5034283;28;20064;-76
2023/02/23 12:10:35;;;;;;;39.38;28.50;;;;;;;12.80;64.97;100106.88;5033085;28;20060;-76
2023/02/23 12:13:17;;;;;;;41.28;29.33;;;;;;;12.77;65.58;100096.38;5037317;28;20053;-77
2023/02/23 12:18:48;;;;;;;38.15;30.10;;;;;;;12.68;64.76;100098.38;5033040;28;20049;-76
2023/02/23 12:24:28;;;;;;;39.35;29.00;;;;;;;12.52;65.48;100093.38;5017602;28;20076;-76
2023/02/23 12:27:12;;;;;;;38.22;27.95;;;;;;;12.54;65.10;100090.28;5035357;28;20061;-77
2023/02/23 12:30:05;;;;;;;38.40;26.95;;;;;;;12.52;65.11;100095.38;5036328;28;20080;-78
2023/02/23 12:32:50;;;;;;;39.88;28.52;;;;;;;12.46;65.54;100091.13;5032243;28;20092;-77
2023/02/23 12:35:25;;;;;;;38.50;27.85;;;;;;;12.40;64.90;100090.50;5036387;28;20149;-77
2023/02/23 12:38:09;;;;;;;39.75;26.98;;;;;;;12.39;65.44;100091.66;5025805;28;20565;-78
2023/02/23 12:41:03;;;;;;;37.92;27.45;;;;;;;12.36;65.04;100092.31;5016056;28;20469;-77
2023/02/23 12:46:50;;;;;;;38.65;26.75;;;;;;;12.35;65.60;100102.69;4957637;29;20066;-77
2023/02/23 12:49:28;;;;;;;44.22;30.15;;;;;;;12.31;65.53;100103.69;4999860;28;20053;-77
2023/02/23 12:52:07;;;;;;;40.55;29.35;;;;;;;12.21;65.56;100102.06;5034689;28;20057;-77
2023/02/23 12:54:37;;;;;;;41.78;29.25;;;;;;;12.23;65.49;100098.97;5016657;28;20046;-77
2023/02/23 12:57:30;;;;;;;42.85;28.88;;;;;;;12.22;65.07;100100.94;5016260;28;20064;-77
2023/02/23 13:03:49;;;;;;;43.33;30.38;;;;;;;12.12;65.37;100104.09;5012842;28;20058;-77
2023/02/23 13:06:36;;;;;;;39.63;27.00;;;;;;;12.06;65.59;100105.44;5040506;28;20057;-77
2023/02/23 13:09:22;;;;;;;48.78;34.50;;;;;;;12.06;65.24;100099.84;5054096;28;20063;-77
2023/02/23 13:12:34;;;;;;;40.50;27.52;;;;;;;12.10;64.82;100100.81;5054677;28;20049;-77
2023/02/23 13:15:14;;;;;;;37.38;26.25;;;;;;;12.14;65.05;100115.75;5052257;28;20061;-76
2023/02/23 13:17:48;;;;;;;;;;;;;;;12.18;65.52;100111.13;5054281;28;20068;-77
2023/02/23 13:20:24;;;;;;;39.33;27.42;;;;;;;12.24;65.44;100107.00;5037504;28;20391;-76
2023/02/23 13:23:08;;;;;;;39.45;27.30;;;;;;;12.32;64.90;100108.91;5047143;28;20063;-78
2023/02/23 13:25:49;;;;;;;37.20;27.13;;;;;;;12.35;65.00;100104.66;5053525;28;20468;-78
2023/02/23 13:28:35;;;;;;;37.85;25.63;;;;;;;12.29;65.17;100103.22;5053573;28;20160;-78
2023/02/23 13:31:26;;;;;;;35.88;25.80;;;;;;;12.28;65.40;100112.72;5053917;28;20052;-77
2023/02/23 13:34:00;;;;;;;39.38;26.02;;;;;;;12.25;65.18;100119.00;5055153;28;20493;-77
2023/02/23 13:36:31;;;;;;;36.15;24.90;;;;;;;12.22;65.14;100108.47;5053020;28;20065;-77
2023/02/23 13:39:36;;;;;;;39.00;25.98;;;;;;;12.21;65.31;100112.44;5055411;28;20060;-77
2023/02/23 13:42:26;;;;;;;38.33;25.65;;;;;;;12.19;65.05;100109.97;5055006;28;20057;-77
2023/02/23 13:45:26;;;;;;;36.03;23.00;;;;;;;12.16;65.45;100117.03;5055481;28;20049;-77
2023/02/23 13:48:01;;;;;;;36.45;23.73;;;;;;;12.12;64.75;100118.06;5054486;28;20049;-77
2023/02/23 13:50:51;;;;;;;34.13;21.10;;;;;;;12.09;64.49;100127.88;5053410;28;20060;-77
2023/02/23 13:54:08;;;;;;;31.85;20.88;;;;;;;12.09;64.48;100124.28;5052688;28;20492;-77
2023/02/23 13:56:48;;;;;;;31.45;21.75;;;;;;;12.07;64.32;100126.59;5042696;28;20188;-77
2023/02/23 13:59:19;;;;;;;31.40;21.23;;;;;;;12.07;64.28;100133.00;5054595;28;20048;-77
2023/02/23 14:01:54;;;;;;;29.20;19.65;;;;;;;12.09;64.32;100135.47;5054975;28;20068;-77
2023/02/23 14:04:35;;;;;;;28.67;19.80;;;;;;;12.14;64.40;100130.53;5040831;28;20049;-77
2023/02/23 14:07:15;;;;;;;25.88;17.92;;;;;;;12.12;64.25;100132.00;5033080;28;20053;-77
2023/02/23 14:09:53;;;;;;;25.05;17.55;;;;;;;12.17;63.62;100134.59;5034226;28;20053;-78
2023/02/23 14:12:25;;;;;;;30.13;19.20;;;;;;;12.12;63.29;100132.81;5034611;28;20109;-78
2023/02/23 14:15:29;;;;;;;26.23;16.73;;;;;;;12.11;63.41;100135.94;5034904;28;20053;-77
2023/02/23 14:18:01;;;;;;;24.02;16.80;;;;;;;12.08;63.59;100129.06;5035077;28;20057;-77
2023/02/23 14:20:55;;;;;;;24.83;16.05;;;;;;;12.11;63.69;100136.75;5034117;28;20064;-77
2023/02/23 14:27:28;;;;;;;25.65;16.35;;;;;;;12.08;63.28;100133.84;4941261;29;20453;-77
2023/02/23 14:33:44;;;;;;;24.13;15.85;;;;;;;11.97;63.58;100141.75;5015508;28;20062;-77
2023/02/23 14:36:37;;;;;;;22.17;14.65;;;;;;;11.96;63.86;100140.09;5015788;28;20046;-78
2023/02/23 14:39:09;;;;;;;23.27;14.93;;;;;;;11.92;63.84;100139.13;5034691;28;20045;-77
2023/02/23 14:44:44;;;;;;;23.85;15.73;;;;;;;11.91;64.04;100137.50;4995243;28;20055;-77
2023/02/23 14:47:48;;;;;;;23.45;15.95;;;;;;;11.88;64.08;100132.53;5031138;28;20077;-77